createdAt,value
2017-10-29T04:30:13.655Z,2.03
2017-10-29T04:32:42.007Z,0.88
2017-10-29T04:35:09.686Z,1.02
2017-10-29T04:37:38.047Z,2.97
2017-10-29T04:40:06.374Z,0.75
2017-10-29T04:42:33.997Z,1.40
2017-10-29T04:45:02.334Z,2.95
2017-10-29T04:47:30.047Z,1.42
2017-10-29T04:49:57.634Z,5.15
2017-10-29T04:52:25.254Z,2.95
2017-10-29T04:54:53.638Z,1.30
2017-10-29T04:57:22.005Z,1.10
2017-10-29T04:59:50.354Z,2.70
2017-10-29T05:02:17.997Z,0.90
2017-10-29T05:04:45.578Z,2.90
2017-10-29T05:07:13.267Z,2.37
2017-10-29T05:09:41.655Z,3.85
2017-10-29T05:12:09.235Z,2.40
2017-10-29T05:14:36.809Z,2.37
2017-10-29T05:17:04.515Z,1.00
2017-10-29T05:19:32.905Z,2.70
2017-10-29T05:22:01.258Z,2.72
2017-10-29T05:24:29.643Z,7.35
2017-10-29T05:26:57.319Z,6.07
2017-10-29T05:29:25.666Z,12.30
2017-10-29T05:31:53.569Z,3.30
2017-10-29T05:34:21.150Z,3.80
2017-10-29T05:36:48.773Z,2.85
2017-10-29T05:39:17.257Z,3.30
2017-10-29T05:41:45.601Z,2.78
2017-10-29T05:44:13.179Z,3.80
2017-10-29T05:46:41.766Z,3.92
2017-10-29T05:49:10.154Z,6.75
2017-10-29T05:51:38.509Z,4.95
2017-10-29T05:54:06.185Z,15.20
2017-10-29T05:56:34.562Z,8.27
2017-10-29T05:59:02.906Z,10.95
2017-10-29T06:01:30.597Z,7.80
2017-10-29T06:03:58.974Z,4.95
2017-10-29T06:06:27.358Z,8.30
2017-10-29T06:08:55.798Z,17.12
2017-10-29T06:11:23.374Z,18.80
2017-10-29T06:13:50.950Z,22.60
2017-10-29T06:16:19.313Z,12.85
2017-10-29T06:18:46.894Z,12.35
2017-10-29T06:21:15.286Z,10.52
2017-10-29T06:23:42.922Z,18.20
2017-10-29T06:26:11.283Z,11.57
2017-10-29T06:28:38.962Z,28.85
2017-10-29T06:31:07.342Z,12.13
2017-10-29T06:33:35.682Z,14.02
2017-10-29T06:36:03.285Z,14.57
2017-10-29T06:38:31.649Z,12.15
2017-10-29T06:41:00.050Z,13.23
2017-10-29T06:43:27.645Z,10.90
2017-10-29T06:45:55.249Z,9.10
2017-10-29T06:48:23.730Z,14.07
2017-10-29T06:50:52.074Z,9.23
2017-10-29T06:53:19.650Z,11.98
2017-10-29T06:55:47.274Z,7.50
2017-10-29T06:58:14.880Z,13.43
2017-10-29T07:00:43.682Z,7.72
2017-10-29T07:03:11.321Z,7.37
2017-10-29T07:05:40.065Z,15.50
2017-10-29T07:08:07.660Z,9.73
2017-10-29T07:10:35.286Z,7.22
2017-10-29T07:13:02.890Z,18.60
2017-10-29T07:15:31.245Z,9.25
2017-10-29T07:17:58.869Z,6.12
2017-10-29T07:20:27.379Z,7.85
2017-10-29T07:22:54.974Z,10.20
2017-10-29T07:25:23.442Z,8.98
2017-10-29T07:27:51.826Z,11.57
2017-10-29T07:30:20.282Z,11.38
2017-10-29T07:32:47.886Z,6.07
2017-10-29T07:35:15.461Z,13.07
2017-10-29T07:37:43.179Z,11.52
2017-10-29T07:40:10.849Z,14.50
2017-10-29T07:42:39.233Z,13.55
2017-10-29T07:45:06.814Z,23.77
2017-10-29T07:47:34.542Z,14.38
2017-10-29T07:50:02.969Z,12.23
2017-10-29T07:52:31.601Z,18.83
2017-10-29T07:55:00.056Z,30.73
2017-10-29T07:57:27.644Z,16.12
2017-10-29T07:59:55.999Z,17.42
2017-10-29T08:02:23.640Z,24.85
2017-10-29T08:04:51.214Z,22.65
2017-10-29T08:07:18.902Z,27.20
2017-10-29T08:09:47.298Z,16.55
2017-10-29T08:12:14.946Z,22.70
2017-10-29T08:14:43.291Z,13.02
2017-10-29T08:17:10.927Z,13.82
2017-10-29T08:19:38.538Z,14.98
2017-10-29T08:22:06.910Z,24.05
2017-10-29T08:24:35.290Z,29.37
2017-10-29T08:27:03.674Z,15.75
2017-10-29T08:29:31.312Z,32.47
2017-10-29T08:31:58.894Z,24.33
2017-10-29T08:34:26.538Z,19.23
2017-10-29T08:36:55.017Z,25.17
2017-10-29T08:39:23.408Z,23.20
2017-10-29T08:41:51.873Z,29.20
2017-10-29T08:44:20.222Z,26.80
2017-10-29T08:46:47.814Z,20.88
2017-10-29T08:49:16.206Z,30.88
2017-10-29T08:51:43.788Z,29.60
2017-10-29T08:54:11.369Z,24.70
2017-10-29T08:56:40.574Z,34.45
2017-10-29T08:59:08.173Z,36.53
2017-10-29T09:01:36.514Z,20.95
2017-10-29T09:04:04.197Z,20.40
2017-10-29T09:06:32.630Z,18.95
2017-10-29T09:09:00.214Z,27.25
2017-10-29T09:11:27.839Z,30.37
2017-10-29T09:13:55.430Z,24.10
2017-10-29T09:16:23.026Z,29.17
2017-10-29T09:18:51.498Z,37.30
2017-10-29T09:21:19.876Z,21.12
2017-10-29T09:23:48.213Z,24.50
2017-10-29T09:26:15.918Z,22.90
2017-10-29T09:28:44.340Z,28.12
2017-10-29T09:31:11.921Z,25.05
2017-10-29T09:33:39.542Z,26.65
2017-10-29T09:36:07.118Z,29.70
2017-10-29T09:38:34.695Z,27.08
2017-10-29T09:41:02.326Z,37.30
2017-10-29T09:43:30.611Z,26.73
2017-10-29T09:45:58.249Z,17.17
2017-10-29T09:48:25.883Z,20.75
2017-10-29T09:50:55.012Z,45.67
2017-10-29T09:53:23.559Z,41.83
2017-10-29T09:55:52.189Z,39.05
2017-10-29T09:58:20.751Z,24.12
2017-10-29T10:00:48.542Z,19.58
2017-10-29T10:03:17.331Z,22.23
2017-10-29T10:05:46.371Z,40.10
2017-10-29T10:08:15.665Z,17.33
2017-10-29T10:10:43.426Z,17.25
2017-10-29T10:13:11.857Z,28.87
2017-10-29T10:15:39.515Z,19.37
2017-10-29T10:18:07.098Z,15.57
2017-10-29T10:20:34.685Z,19.92
2017-10-29T10:23:03.062Z,30.20
2017-10-29T10:25:31.406Z,31.27
2017-10-29T10:27:59.047Z,21.55
2017-10-29T10:30:26.683Z,25.50
2017-10-29T10:32:54.294Z,21.58
2017-10-29T10:35:21.883Z,17.10
2017-10-29T10:37:50.258Z,32.25
2017-10-29T10:40:18.606Z,27.85
2017-10-29T10:42:46.346Z,24.27
2017-10-29T10:45:14.046Z,35.15
2017-10-29T10:47:42.395Z,25.75
2017-10-29T10:50:09.974Z,22.95
2017-10-29T10:52:37.595Z,19.60
2017-10-29T10:55:05.197Z,21.23
2017-10-29T10:57:32.769Z,13.77
2017-10-29T11:00:01.549Z,23.23
2017-10-29T11:02:29.924Z,11.18
2017-10-29T11:04:58.454Z,20.42
2017-10-29T11:07:26.053Z,20.70
2017-10-29T11:09:53.738Z,16.02
2017-10-29T11:12:22.145Z,17.02
2017-10-29T11:14:50.051Z,10.73
2017-10-29T11:17:17.642Z,13.48
2017-10-29T11:19:45.250Z,11.75
2017-10-29T11:22:12.854Z,7.70
2017-10-29T11:24:41.197Z,5.82
2017-10-29T11:27:08.882Z,12.93
2017-10-29T11:29:37.234Z,8.93
2017-10-29T11:32:04.828Z,11.02
2017-10-29T11:34:33.282Z,9.65
2017-10-29T11:37:01.646Z,13.50
2017-10-29T11:39:29.241Z,9.00
2017-10-29T11:41:57.641Z,7.22
2017-10-29T11:44:25.224Z,9.57
2017-10-29T11:46:52.815Z,8.52
2017-10-29T11:49:20.494Z,12.45
2017-10-29T11:51:48.869Z,16.50
2017-10-29T11:54:17.262Z,10.25
2017-10-29T11:56:44.898Z,8.10
2017-10-29T11:59:12.470Z,9.25
2017-10-29T12:01:40.850Z,16.92
2017-10-29T12:04:09.215Z,14.40
2017-10-29T12:06:36.886Z,17.05
2017-10-29T12:09:05.274Z,21.25
2017-10-29T12:11:32.855Z,30.12
2017-10-29T12:14:00.427Z,14.02
2017-10-29T12:16:28.070Z,11.45
2017-10-29T12:18:55.654Z,17.77
2017-10-29T12:21:23.257Z,19.92
2017-10-29T12:23:51.734Z,21.12
2017-10-29T12:26:20.073Z,9.70
2017-10-29T12:28:47.650Z,18.92
2017-10-29T12:31:15.330Z,16.48
2017-10-29T12:33:43.724Z,19.92
2017-10-29T12:36:11.330Z,18.98
2017-10-29T12:38:38.911Z,16.23
2017-10-29T12:41:06.510Z,18.25
2017-10-29T12:43:34.092Z,22.05
2017-10-29T12:46:01.670Z,20.75
2017-10-29T12:48:29.366Z,16.87
2017-10-29T12:50:57.717Z,20.77
2017-10-29T12:53:26.806Z,11.82
2017-10-29T12:55:54.445Z,25.20
2017-10-29T12:58:22.050Z,17.62
2017-10-29T13:00:50.394Z,14.50
2017-10-29T13:03:18.010Z,21.17
2017-10-29T13:05:45.664Z,24.02
2017-10-29T13:08:13.242Z,23.42
2017-10-29T13:10:40.936Z,20.05
2017-10-29T13:13:08.682Z,20.12
2017-10-29T13:15:36.550Z,24.98
2017-10-29T13:18:05.182Z,18.30
2017-10-29T13:20:33.531Z,14.27
2017-10-29T13:23:02.631Z,24.58
2017-10-29T13:25:30.347Z,11.82
2017-10-29T13:27:57.930Z,18.42
2017-10-29T13:30:25.541Z,16.42
2017-10-29T13:32:53.191Z,25.92
2017-10-29T13:35:21.536Z,7.25
2017-10-29T13:37:49.167Z,21.48
2017-10-29T13:40:16.758Z,7.82
2017-10-29T13:42:44.337Z,25.62
2017-10-29T13:45:11.940Z,15.32
2017-10-29T13:47:39.523Z,9.82
2017-10-29T13:50:07.982Z,10.30
2017-10-29T13:52:36.082Z,11.15
2017-10-29T13:55:03.674Z,14.45
2017-10-29T13:57:32.170Z,10.32
2017-10-29T13:59:59.748Z,10.18
2017-10-29T14:02:27.324Z,8.63
2017-10-29T14:04:55.044Z,13.65
2017-10-29T14:07:23.387Z,16.90
2017-10-29T14:09:51.071Z,17.25
2017-10-29T14:12:19.437Z,10.25
2017-10-29T14:14:47.017Z,16.67
2017-10-29T14:17:15.389Z,10.25
2017-10-29T14:19:43.767Z,9.38
2017-10-29T14:22:12.111Z,19.17
2017-10-29T14:24:39.691Z,7.22
2017-10-29T14:27:08.074Z,27.00
2017-10-29T14:29:36.422Z,11.15
2017-10-29T14:32:04.119Z,13.00
2017-10-29T14:34:32.461Z,9.27
2017-10-29T14:37:00.100Z,14.87
2017-10-29T14:39:27.789Z,19.50
2017-10-29T14:41:55.370Z,14.27
2017-10-29T14:44:23.742Z,12.50
2017-10-29T14:46:52.173Z,12.63
2017-10-29T14:49:19.789Z,16.27
2017-10-29T14:51:48.132Z,24.20
2017-10-29T14:54:15.764Z,24.45
2017-10-29T14:56:43.345Z,17.02
2017-10-29T14:59:10.924Z,21.92
2017-10-29T15:01:38.536Z,20.88
2017-10-29T15:04:06.109Z,20.75
2017-10-29T15:06:33.681Z,17.35
2017-10-29T15:09:01.374Z,19.58
2017-10-29T15:11:29.749Z,21.55
2017-10-29T15:13:58.091Z,16.58
2017-10-29T15:16:25.742Z,10.40
2017-10-29T15:18:53.351Z,11.52
2017-10-29T15:21:21.721Z,14.15
2017-10-29T15:23:50.108Z,12.18
2017-10-29T15:26:18.462Z,9.32
2017-10-29T15:28:46.039Z,9.80
2017-10-29T15:31:14.405Z,6.55
2017-10-29T15:33:41.985Z,13.45
2017-10-29T15:36:09.630Z,14.55
2017-10-29T15:38:37.992Z,12.40
2017-10-29T15:41:05.676Z,13.68
2017-10-29T15:43:34.154Z,10.18
2017-10-29T15:46:02.498Z,10.57
2017-10-29T15:48:30.852Z,15.48
2017-10-29T15:50:58.459Z,15.45
2017-10-29T15:53:26.834Z,11.57
2017-10-29T15:55:55.218Z,25.52
2017-10-29T15:58:23.610Z,13.35
2017-10-29T16:00:51.190Z,13.07
2017-10-29T16:03:18.809Z,6.05
2017-10-29T16:05:47.187Z,11.02
2017-10-29T16:08:15.565Z,17.95
2017-10-29T16:10:43.914Z,15.38
2017-10-29T16:13:11.526Z,11.57
2017-10-29T16:15:39.110Z,13.07
2017-10-29T16:18:06.830Z,9.40
2017-10-29T16:20:35.174Z,7.87
2017-10-29T16:23:02.755Z,6.20
2017-10-29T16:25:31.142Z,4.93
2017-10-29T16:27:59.487Z,6.57
2017-10-29T16:30:27.834Z,10.50
2017-10-29T16:32:55.560Z,17.62
2017-10-29T16:35:23.933Z,10.63
2017-10-29T16:37:52.304Z,16.90
2017-10-29T16:40:20.678Z,9.18
2017-10-29T16:42:48.345Z,11.27
2017-10-29T16:45:16.722Z,19.40
2017-10-29T16:47:45.103Z,11.85
2017-10-29T16:50:13.473Z,15.35
2017-10-29T16:52:41.866Z,7.50
2017-10-29T16:55:10.287Z,8.98
2017-10-29T16:57:37.867Z,5.20
2017-10-29T17:00:06.818Z,11.20
2017-10-29T17:02:34.438Z,8.63
2017-10-29T17:05:02.813Z,12.50
2017-10-29T17:07:31.352Z,11.68
2017-10-29T17:09:59.150Z,7.10
2017-10-29T17:12:26.822Z,9.50
2017-10-29T17:14:55.201Z,10.85
2017-10-29T17:17:23.550Z,8.70
2017-10-29T17:19:51.238Z,17.08
2017-10-29T17:22:19.577Z,7.87
2017-10-29T17:24:47.155Z,9.82
2017-10-29T17:27:16.288Z,10.32
2017-10-29T17:29:43.866Z,9.98
2017-10-29T17:32:11.441Z,9.15
2017-10-29T17:34:39.061Z,14.73
2017-10-29T17:37:06.646Z,20.05
2017-10-29T17:39:34.270Z,21.90
2017-10-29T17:42:02.662Z,11.82
2017-10-29T17:44:30.242Z,28.35
2017-10-29T17:46:57.820Z,14.40
2017-10-29T17:49:25.571Z,12.02
2017-10-29T17:51:53.149Z,19.25
2017-10-29T17:54:20.734Z,11.20
2017-10-29T17:56:49.106Z,20.52
2017-10-29T17:59:16.693Z,12.88
2017-10-29T18:01:44.334Z,12.77
2017-10-29T18:04:12.782Z,12.82
2017-10-29T18:06:40.362Z,21.58
2017-10-29T18:09:07.933Z,25.10
2017-10-29T18:11:36.351Z,16.42
2017-10-29T18:14:03.934Z,16.25
2017-10-29T18:16:31.526Z,12.77
2017-10-29T18:18:59.939Z,17.15
2017-10-29T18:21:27.522Z,10.68
2017-10-29T18:23:55.098Z,15.38
2017-10-29T18:26:23.559Z,30.73
2017-10-29T18:28:51.142Z,19.73
2017-10-29T18:31:18.813Z,14.25
2017-10-29T18:33:46.418Z,20.85
2017-10-29T18:36:14.039Z,13.52
2017-10-29T18:38:42.401Z,12.85
2017-10-29T18:41:10.006Z,25.27
2017-10-29T18:43:37.586Z,17.92
2017-10-29T18:46:05.163Z,17.50
2017-10-29T18:48:34.318Z,15.98
2017-10-29T18:51:01.950Z,10.82
2017-10-29T18:53:30.322Z,25.55
2017-10-29T18:55:58.702Z,12.52
2017-10-29T18:58:27.081Z,15.25
2017-10-29T19:00:55.434Z,10.27
2017-10-29T19:03:23.115Z,8.52
2017-10-29T19:05:51.494Z,12.65
2017-10-29T19:08:19.838Z,9.05
2017-10-29T19:10:47.591Z,15.55
2017-10-29T19:13:15.170Z,6.53
2017-10-29T19:15:42.814Z,10.57
2017-10-29T19:18:10.386Z,22.30
2017-10-29T19:20:38.065Z,11.07
2017-10-29T19:23:06.482Z,5.85
2017-10-29T19:25:34.115Z,15.27
2017-10-29T19:28:02.490Z,10.60
2017-10-29T19:30:30.883Z,8.90
2017-10-29T19:32:58.466Z,16.52
2017-10-29T19:35:26.053Z,13.45
2017-10-29T19:37:53.743Z,11.02
2017-10-29T19:40:22.118Z,10.40
2017-10-29T19:42:50.497Z,11.57
2017-10-29T19:45:18.864Z,9.05
2017-10-29T19:47:46.529Z,12.60
2017-10-29T19:50:14.194Z,25.10
2017-10-29T19:52:42.672Z,14.27
2017-10-29T19:55:11.019Z,12.85
2017-10-29T19:57:38.605Z,25.45
2017-10-29T20:00:07.911Z,16.77
2017-10-29T20:02:36.263Z,16.62
2017-10-29T20:05:03.843Z,12.60
2017-10-29T20:07:32.329Z,13.10
2017-10-29T20:10:00.683Z,12.60
2017-10-29T20:12:28.364Z,23.20
2017-10-29T20:14:56.845Z,17.42
2017-10-29T20:17:25.214Z,19.65
2017-10-29T20:19:53.563Z,25.08
2017-10-29T20:22:21.251Z,15.50
2017-10-29T20:24:49.634Z,24.33
2017-10-29T20:27:18.014Z,15.80
2017-10-29T20:29:46.386Z,13.55
2017-10-29T20:32:14.729Z,14.82
2017-10-29T20:34:42.374Z,25.58
2017-10-29T20:37:09.950Z,18.70
2017-10-29T20:39:37.549Z,21.48
2017-10-29T20:42:06.010Z,11.82
2017-10-29T20:44:33.586Z,21.08
2017-10-29T20:47:02.008Z,16.50
2017-10-29T20:49:29.642Z,19.45
2017-10-29T20:51:57.222Z,16.92
2017-10-29T20:54:24.807Z,14.18
2017-10-29T20:56:52.438Z,23.08
2017-10-29T20:59:20.055Z,19.45
2017-10-29T21:01:48.434Z,25.60
2017-10-29T21:04:16.830Z,28.12
2017-10-29T21:06:44.474Z,27.23
2017-10-29T21:09:12.845Z,25.80
2017-10-29T21:11:41.278Z,24.23
2017-10-29T21:14:08.892Z,18.83
2017-10-29T21:16:37.270Z,16.90
2017-10-29T21:19:05.663Z,21.95
2017-10-29T21:21:33.238Z,21.05
2017-10-29T21:24:00.853Z,19.87
2017-10-29T21:26:29.342Z,23.30
2017-10-29T21:28:57.691Z,16.48
2017-10-29T21:31:25.375Z,35.90
2017-10-29T21:33:53.769Z,26.30
2017-10-29T21:36:21.342Z,19.17
2017-10-29T21:38:48.966Z,23.48
2017-10-29T21:41:17.330Z,24.33
2017-10-29T21:43:45.016Z,18.30
2017-10-29T21:46:13.438Z,29.98
2017-10-29T21:48:41.150Z,21.45
2017-10-29T21:51:09.522Z,18.48
2017-10-29T21:53:37.866Z,19.50
2017-10-29T21:56:05.531Z,32.85
2017-10-29T21:58:33.105Z,21.70
2017-10-29T22:01:00.785Z,16.25
2017-10-29T22:03:29.262Z,38.03
2017-10-29T22:05:57.610Z,25.25
2017-10-29T22:08:25.187Z,20.80
2017-10-29T22:10:52.790Z,29.48
2017-10-29T22:13:20.375Z,27.67
2017-10-29T22:15:48.074Z,24.65
2017-10-29T22:18:16.454Z,20.12
2017-10-29T22:20:44.794Z,26.92
2017-10-29T22:23:12.500Z,23.42
2017-10-29T22:25:40.920Z,20.05
2017-10-29T22:28:08.535Z,20.70
2017-10-29T22:30:36.910Z,19.95
2017-10-29T22:33:05.267Z,22.67
2017-10-29T22:35:32.848Z,29.83
2017-10-29T22:38:00.481Z,18.87
2017-10-29T22:40:28.062Z,27.02
2017-10-29T22:42:56.406Z,25.80
2017-10-29T22:45:24.106Z,22.02
2017-10-29T22:47:52.450Z,15.93
2017-10-29T22:50:20.025Z,31.48
2017-10-29T22:52:48.389Z,30.65
2017-10-29T22:55:16.071Z,30.40
2017-10-29T22:57:44.438Z,29.27
2017-10-29T23:00:12.029Z,23.05
2017-10-29T23:02:39.671Z,18.42
2017-10-29T23:05:09.851Z,28.23
2017-10-29T23:07:39.841Z,36.78
2017-10-29T23:10:08.254Z,22.60
2017-10-29T23:12:35.865Z,24.10
2017-10-29T23:15:03.503Z,30.23
2017-10-29T23:17:31.845Z,23.33
2017-10-29T23:19:59.451Z,19.48
2017-10-29T23:22:27.090Z,29.90
2017-10-29T23:24:55.586Z,25.20
2017-10-29T23:27:23.961Z,24.17
2017-10-29T23:29:52.308Z,22.85
